sensor_id;sensor_type;location;lat;lon;timestamp;pressure;altitude;pressure_sealevel;temperature;humidity
21781;BME280;52576;53.614;9.894;2022-09-02T00:01:10;101779.97;;;12.66;86.47
21781;BME280;52576;53.614;9.894;2022-09-02T00:02:14;101782.03;;;12.64;86.83
21781;BME280;52576;53.614;9.894;2022-09-02T00:03:19;101779.34;;;12.64;86.55
21781;BME280;52576;53.614;9.894;2022-09-02T00:04:24;101779.34;;;12.64;86.99
21781;BME280;52576;53.614;9.894;2022-09-02T00:05:26;101780.34;;;12.63;87.06
21781;BME280;52576;53.614;9.894;2022-09-02T00:06:30;101782.19;;;12.62;87.16
21781;BME280;52576;53.614;9.894;2022-09-02T00:07:32;101782.19;;;12.62;86.81
21781;BME280;52576;53.614;9.894;2022-09-02T00:08:36;101779.72;;;12.61;87.11
21781;BME280;52576;53.614;9.894;2022-09-02T00:09:39;101778.91;;;12.60;86.90
21781;BME280;52576;53.614;9.894;2022-09-02T00:10:43;101785.28;;;12.59;87.11
21781;BME280;52576;53.614;9.894;2022-09-02T00:11:47;101777.41;;;12.58;87.17
21781;BME280;52576;53.614;9.894;2022-09-02T00:12:51;101773.88;;;12.57;86.87
21781;BME280;52576;53.614;9.894;2022-09-02T00:13:56;101774.72;;;12.58;87.26
21781;BME280;52576;53.614;9.894;2022-09-02T00:14:59;101773.09;;;12.57;86.92
21781;BME280;52576;53.614;9.894;2022-09-02T00:16:02;101766.81;;;12.50;87.42
21781;BME280;52576;53.614;9.894;2022-09-02T00:17:05;101778.66;;;12.55;86.99
21781;BME280;52576;53.614;9.894;2022-09-02T00:18:08;101769.75;;;12.55;87.47
21781;BME280;52576;53.614;9.894;2022-09-02T00:19:17;101773.47;;;12.54;87.39
21781;BME280;52576;53.614;9.894;2022-09-02T00:20:20;101771.78;;;12.53;86.91
21781;BME280;52576;53.614;9.894;2022-09-02T00:21:23;101769.09;;;12.53;87.34
21781;BME280;52576;53.614;9.894;2022-09-02T00:22:26;101766.44;;;12.53;87.45
21781;BME280;52576;53.614;9.894;2022-09-02T00:23:29;101770.97;;;12.52;87.40
21781;BME280;52576;53.614;9.894;2022-09-02T00:24:32;101770.16;;;12.52;87.12
21781;BME280;52576;53.614;9.894;2022-09-02T00:25:37;101766.81;;;12.50;87.12
21781;BME280;52576;53.614;9.894;2022-09-02T00:26:40;101759.16;;;12.47;87.24
21781;BME280;52576;53.614;9.894;2022-09-02T00:27:44;101767.66;;;12.50;87.39
21781;BME280;52576;53.614;9.894;2022-09-02T00:28:47;101773.03;;;12.50;87.27
21781;BME280;52576;53.614;9.894;2022-09-02T00:29:58;101767.00;;;12.48;87.54
21781;BME280;52576;53.614;9.894;2022-09-02T00:31:00;101765.16;;;12.49;87.33
21781;BME280;52576;53.614;9.894;2022-09-02T00:32:04;101771.53;;;12.48;87.43
21781;BME280;52576;53.614;9.894;2022-09-02T00:33:07;101767.22;;;12.47;87.69
21781;BME280;52576;53.614;9.894;2022-09-02T00:34:11;101769.06;;;12.46;87.75
21781;BME280;52576;53.614;9.894;2022-09-02T00:35:13;101776.25;;;12.46;87.64
21781;BME280;52576;53.614;9.894;2022-09-02T00:36:16;101763.03;;;12.44;87.57
21781;BME280;52576;53.614;9.894;2022-09-02T00:37:18;101768.22;;;12.46;87.41
21781;BME280;52576;53.614;9.894;2022-09-02T00:38:22;101763.03;;;12.44;87.93
21781;BME280;52576;53.614;9.894;2022-09-02T00:39:24;101765.72;;;12.44;87.87
21781;BME280;52576;53.614;9.894;2022-09-02T00:40:28;101770.28;;;12.44;87.76
21781;BME280;52576;53.614;9.894;2022-09-02T00:41:31;101768.59;;;12.43;87.59
21781;BME280;52576;53.614;9.894;2022-09-02T00:42:34;101769.44;;;12.43;87.80
21781;BME280;52576;53.614;9.894;2022-09-02T00:43:41;101767.59;;;12.44;87.97
21781;BME280;52576;53.614;9.894;2022-09-02T00:44:44;101770.44;;;12.42;87.91
21781;BME280;52576;53.614;9.894;2022-09-02T00:45:48;101768.59;;;12.43;87.55
21781;BME280;52576;53.614;9.894;2022-09-02T00:46:51;101766.75;;;12.43;87.67
21781;BME280;52576;53.614;9.894;2022-09-02T00:47:53;101769.63;;;12.42;87.52
21781;BME280;52576;53.614;9.894;2022-09-02T00:49:01;101775.00;;;12.42;87.60
21781;BME280;52576;53.614;9.894;2022-09-02T00:50:08;101769.63;;;12.42;87.80
21781;BME280;52576;53.614;9.894;2022-09-02T00:51:12;101775.00;;;12.42;87.91
21781;BME280;52576;53.614;9.894;2022-09-02T00:52:17;101766.31;;;12.40;87.48
21781;BME280;52576;53.614;9.894;2022-09-02T00:53:21;101772.50;;;12.40;87.55
21781;BME280;52576;53.614;9.894;2022-09-02T00:54:25;101770.84;;;12.39;87.69
21781;BME280;52576;53.614;9.894;2022-09-02T00:55:30;101770.84;;;12.39;87.54
21781;BME280;52576;53.614;9.894;2022-09-02T00:56:36;101768.34;;;12.38;87.86
21781;BME280;52576;53.614;9.894;2022-09-02T00:57:42;101771.88;;;12.38;87.83
21781;BME280;52576;53.614;9.894;2022-09-02T00:58:45;101772.72;;;12.39;87.54
21781;BME280;52576;53.614;9.894;2022-09-02T00:59:55;101773.72;;;12.38;87.88
21781;BME280;52576;53.614;9.894;2022-09-02T01:01:02;101782.78;;;12.37;87.73
21781;BME280;52576;53.614;9.894;2022-09-02T01:02:06;101771.22;;;12.36;88.00
21781;BME280;52576;53.614;9.894;2022-09-02T01:03:13;101772.06;;;12.37;87.79
21781;BME280;52576;53.614;9.894;2022-09-02T01:04:17;101775.75;;;12.36;87.60
21781;BME280;52576;53.614;9.894;2022-09-02T01:05:21;101775.75;;;12.36;88.02
21781;BME280;52576;53.614;9.894;2022-09-02T01:06:26;101765.00;;;12.36;87.75
21781;BME280;52576;53.614;9.894;2022-09-02T01:07:31;101776.78;;;12.35;88.10
21781;BME280;52576;53.614;9.894;2022-09-02T01:08:36;101770.56;;;12.34;87.94
21781;BME280;52576;53.614;9.894;2022-09-02T01:09:40;101768.72;;;12.35;87.71
21781;BME280;52576;53.614;9.894;2022-09-02T01:10:44;101773.44;;;12.33;87.62
21781;BME280;52576;53.614;9.894;2022-09-02T01:11:49;101766.25;;;12.33;87.83
21781;BME280;52576;53.614;9.894;2022-09-02T01:12:56;101775.28;;;12.32;88.07
21781;BME280;52576;53.614;9.894;2022-09-02T01:13:59;101770.13;;;12.31;88.05
21781;BME280;52576;53.614;9.894;2022-09-02T01:15:04;101772.00;;;12.30;88.00
21781;BME280;52576;53.614;9.894;2022-09-02T01:16:13;101763.09;;;12.30;87.81
21781;BME280;52576;53.614;9.894;2022-09-02T01:17:20;101769.50;;;12.29;87.69
21781;BME280;52576;53.614;9.894;2022-09-02T01:18:24;101762.19;;;12.23;87.83
21781;BME280;52576;53.614;9.894;2022-09-02T01:19:32;101769.84;;;12.26;88.09
21781;BME280;52576;53.614;9.894;2022-09-02T01:20:36;101763.69;;;12.25;88.27
21781;BME280;52576;53.614;9.894;2022-09-02T01:21:45;101765.72;;;12.23;88.16
21781;BME280;52576;53.614;9.894;2022-09-02T01:22:49;101770.63;;;12.20;87.96
21781;BME280;52576;53.614;9.894;2022-09-02T01:23:54;101761.34;;;12.22;88.20
21781;BME280;52576;53.614;9.894;2022-09-02T01:25:03;101769.41;;;12.22;87.67
21781;BME280;52576;53.614;9.894;2022-09-02T01:26:06;101763.63;;;12.19;87.97
21781;BME280;52576;53.614;9.894;2022-09-02T01:27:14;101763.97;;;12.16;88.13
21781;BME280;52576;53.614;9.894;2022-09-02T01:28:18;101768.34;;;12.17;88.11
21781;BME280;52576;53.614;9.894;2022-09-02T01:29:21;101773.91;;;12.15;88.42
21781;BME280;52576;53.614;9.894;2022-09-02T01:30:25;101767.88;;;12.13;88.18
21781;BME280;52576;53.614;9.894;2022-09-02T01:31:28;101763.53;;;12.12;88.38
21781;BME280;52576;53.614;9.894;2022-09-02T01:32:31;101767.44;;;12.10;88.41
21781;BME280;52576;53.614;9.894;2022-09-02T01:33:35;101762.25;;;12.08;88.16
21781;BME280;52576;53.614;9.894;2022-09-02T01:34:37;101761.59;;;12.06;88.48
21781;BME280;52576;53.614;9.894;2022-09-02T01:35:40;101756.25;;;12.06;88.78
21781;BME280;52576;53.614;9.894;2022-09-02T01:36:44;101762.63;;;12.05;88.50
21781;BME280;52576;53.614;9.894;2022-09-02T01:37:47;101760.16;;;12.04;88.96
21781;BME280;52576;53.614;9.894;2022-09-02T01:38:56;101763.84;;;12.03;88.61
21781;BME280;52576;53.614;9.894;2022-09-02T01:40:01;101762.19;;;12.02;88.86
21781;BME280;52576;53.614;9.894;2022-09-02T01:41:03;101764.88;;;12.02;88.74
21781;BME280;52576;53.614;9.894;2022-09-02T01:42:07;101760.50;;;12.01;89.20
21781;BME280;52576;53.614;9.894;2022-09-02T01:43:11;101760.69;;;11.99;88.79
21781;BME280;52576;53.614;9.894;2022-09-02T01:44:15;101760.69;;;11.99;88.82
21781;BME280;52576;53.614;9.894;2022-09-02T01:45:18;101762.72;;;11.97;89.05
21781;BME280;52576;53.614;9.894;2022-09-02T01:46:22;101766.44;;;11.96;88.95
21781;BME280;52576;53.614;9.894;2022-09-02T01:47:26;101760.25;;;11.96;89.13
21781;BME280;52576;53.614;9.894;2022-09-02T01:48:30;101756.94;;;11.94;89.35
21781;BME280;52576;53.614;9.894;2022-09-02T01:49:32;101763.31;;;11.93;89.41
21781;BME280;52576;53.614;9.894;2022-09-02T01:50:38;101752.78;;;11.91;89.36
21781;BME280;52576;53.614;9.894;2022-09-02T01:51:52;101754.59;;;11.91;89.36
21781;BME280;52576;53.614;9.894;2022-09-02T01:52:58;101755.84;;;11.88;89.13
21781;BME280;52576;53.614;9.894;2022-09-02T01:54:02;101754.00;;;11.89;89.54
21781;BME280;52576;53.614;9.894;2022-09-02T01:55:06;101755.00;;;11.88;89.28
21781;BME280;52576;53.614;9.894;2022-09-02T01:56:08;101756.84;;;11.87;89.27
21781;BME280;52576;53.614;9.894;2022-09-02T01:57:12;101750.84;;;11.85;89.58
21781;BME280;52576;53.614;9.894;2022-09-02T01:58:14;101756.22;;;11.85;89.86
21781;BME280;52576;53.614;9.894;2022-09-02T01:59:17;101751.03;;;11.84;89.63
21781;BME280;52576;53.614;9.894;2022-09-02T02:00:21;101755.75;;;11.82;89.49
21781;BME280;52576;53.614;9.894;2022-09-02T02:01:25;101753.88;;;11.82;89.96
21781;BME280;52576;53.614;9.894;2022-09-02T02:02:27;101746.03;;;11.81;89.80
21781;BME280;52576;53.614;9.894;2022-09-02T02:03:30;101745.41;;;11.79;90.08
21781;BME280;52576;53.614;9.894;2022-09-02T02:04:33;101752.44;;;11.80;89.82
21781;BME280;52576;53.614;9.894;2022-09-02T02:05:38;101744.56;;;11.78;89.89
21781;BME280;52576;53.614;9.894;2022-09-02T02:06:41;101741.25;;;11.76;89.75
21781;BME280;52576;53.614;9.894;2022-09-02T02:07:46;101750.31;;;11.75;89.85
21781;BME280;52576;53.614;9.894;2022-09-02T02:08:48;101750.50;;;11.74;89.69
21781;BME280;52576;53.614;9.894;2022-09-02T02:09:53;101740.78;;;11.73;89.79
21781;BME280;52576;53.614;9.894;2022-09-02T02:10:55;101743.66;;;11.71;90.28
21781;BME280;52576;53.614;9.894;2022-09-02T02:11:59;101747.38;;;11.70;90.19
21781;BME280;52576;53.614;9.894;2022-09-02T02:13:03;101740.53;;;11.68;90.08
21781;BME280;52576;53.614;9.894;2022-09-02T02:14:09;101741.56;;;11.67;90.18
21781;BME280;52576;53.614;9.894;2022-09-02T02:15:18;101743.38;;;11.66;90.26
21781;BME280;52576;53.614;9.894;2022-09-02T02:16:22;101741.25;;;11.62;90.37
21781;BME280;52576;53.614;9.894;2022-09-02T02:17:25;101739.25;;;11.64;90.40
21781;BME280;52576;53.614;9.894;2022-09-02T02:18:28;101743.94;;;11.62;90.68
21781;BME280;52576;53.614;9.894;2022-09-02T02:19:30;101737.72;;;11.61;90.68
21781;BME280;52576;53.614;9.894;2022-09-02T02:20:34;101744.13;;;11.60;90.87
21781;BME280;52576;53.614;9.894;2022-09-02T02:21:36;101738.94;;;11.59;90.63
21781;BME280;52576;53.614;9.894;2022-09-02T02:22:40;101739.94;;;11.58;91.18
21781;BME280;52576;53.614;9.894;2022-09-02T02:23:44;101733.94;;;11.56;90.51
21781;BME280;52576;53.614;9.894;2022-09-02T02:24:47;101744.66;;;11.56;91.06
21781;BME280;52576;53.614;9.894;2022-09-02T02:25:50;101734.13;;;11.54;90.98
21781;BME280;52576;53.614;9.894;2022-09-02T02:26:53;101743.19;;;11.53;90.97
21781;BME280;52576;53.614;9.894;2022-09-02T02:27:55;101738.03;;;11.52;91.04
21781;BME280;52576;53.614;9.894;2022-09-02T02:28:58;101740.69;;;11.52;91.02
21781;BME280;52576;53.614;9.894;2022-09-02T02:30:03;101735.34;;;11.52;91.06
21781;BME280;52576;53.614;9.894;2022-09-02T02:31:07;101736.53;;;11.49;90.98
21781;BME280;52576;53.614;9.894;2022-09-02T02:32:10;101732.94;;;11.42;91.15
21781;BME280;52576;53.614;9.894;2022-09-02T02:33:14;101739.59;;;11.46;91.11
21781;BME280;52576;53.614;9.894;2022-09-02T02:34:16;101741.25;;;11.47;91.18
21781;BME280;52576;53.614;9.894;2022-09-02T02:35:20;101739.13;;;11.43;91.63
21781;BME280;52576;53.614;9.894;2022-09-02T02:36:23;101737.94;;;11.45;91.45
21781;BME280;52576;53.614;9.894;2022-09-02T02:37:27;101737.09;;;11.45;91.82
21781;BME280;52576;53.614;9.894;2022-09-02T02:38:29;101741.16;;;11.40;91.66
21781;BME280;52576;53.614;9.894;2022-09-02T02:39:33;101731.28;;;11.41;91.84
21781;BME280;52576;53.614;9.894;2022-09-02T02:40:36;101733.97;;;11.41;91.77
21781;BME280;52576;53.614;9.894;2022-09-02T02:41:40;101735.78;;;11.40;91.91
21781;BME280;52576;53.614;9.894;2022-09-02T02:42:46;101740.34;;;11.40;92.15
21781;BME280;52576;53.614;9.894;2022-09-02T02:43:50;101736.16;;;11.37;92.13
21781;BME280;52576;53.614;9.894;2022-09-02T02:44:52;101737.00;;;11.38;91.83
21781;BME280;52576;53.614;9.894;2022-09-02T02:45:56;101728.13;;;11.37;92.19
21781;BME280;52576;53.614;9.894;2022-09-02T02:46:58;101728.31;;;11.36;92.18
21781;BME280;52576;53.614;9.894;2022-09-02T02:48:02;101728.31;;;11.36;92.18
21781;BME280;52576;53.614;9.894;2022-09-02T02:49:05;101730.16;;;11.35;92.36
21781;BME280;52576;53.614;9.894;2022-09-02T02:50:10;101722.50;;;11.32;91.90
21781;BME280;52576;53.614;9.894;2022-09-02T02:51:13;101726.03;;;11.33;92.19
21781;BME280;52576;53.614;9.894;2022-09-02T02:52:16;101722.88;;;11.29;92.08
21781;BME280;52576;53.614;9.894;2022-09-02T02:53:18;101724.34;;;11.32;92.47
21781;BME280;52576;53.614;9.894;2022-09-02T02:54:22;101729.88;;;11.30;92.11
21781;BME280;52576;53.614;9.894;2022-09-02T02:55:34;101724.53;;;11.30;92.37
21781;BME280;52576;53.614;9.894;2022-09-02T02:56:37;101722.03;;;11.29;92.65
21781;BME280;52576;53.614;9.894;2022-09-02T02:57:40;101718.38;;;11.30;92.29
21781;BME280;52576;53.614;9.894;2022-09-02T02:58:44;101720.19;;;11.29;92.32
21781;BME280;52576;53.614;9.894;2022-09-02T02:59:47;101738.09;;;11.29;92.43
21781;BME280;52576;53.614;9.894;2022-09-02T03:00:51;101728.44;;;11.28;92.56
21781;BME280;52576;53.614;9.894;2022-09-02T03:01:54;101734.63;;;11.28;92.84
21781;BME280;52576;53.614;9.894;2022-09-02T03:02:59;101727.78;;;11.26;92.69
21781;BME280;52576;53.614;9.894;2022-09-02T03:04:03;101726.94;;;11.25;92.46
21781;BME280;52576;53.614;9.894;2022-09-02T03:05:09;101726.94;;;11.25;92.42
21781;BME280;52576;53.614;9.894;2022-09-02T03:06:12;101733.31;;;11.24;92.69
21781;BME280;52576;53.614;9.894;2022-09-02T03:07:15;101723.63;;;11.23;92.74
21781;BME280;52576;53.614;9.894;2022-09-02T03:08:18;101728.16;;;11.23;92.67
21781;BME280;52576;53.614;9.894;2022-09-02T03:09:24;101730.81;;;11.23;92.69
21781;BME280;52576;53.614;9.894;2022-09-02T03:10:27;101723.16;;;11.20;92.94
21781;BME280;52576;53.614;9.894;2022-09-02T03:11:35;101729.16;;;11.22;93.15
21781;BME280;52576;53.614;9.894;2022-09-02T03:12:37;101729.34;;;11.20;92.93
21781;BME280;52576;53.614;9.894;2022-09-02T03:13:41;101731.19;;;11.20;92.99
21781;BME280;52576;53.614;9.894;2022-09-02T03:14:43;101726.03;;;11.18;92.98
21781;BME280;52576;53.614;9.894;2022-09-02T03:15:47;101724.34;;;11.17;93.13
21781;BME280;52576;53.614;9.894;2022-09-02T03:16:50;101730.72;;;11.16;93.12
21781;BME280;52576;53.614;9.894;2022-09-02T03:17:54;101726.38;;;11.15;93.12
21781;BME280;52576;53.614;9.894;2022-09-02T03:18:57;101728.44;;;11.13;93.24
21781;BME280;52576;53.614;9.894;2022-09-02T03:20:01;101728.44;;;11.13;92.97
21781;BME280;52576;53.614;9.894;2022-09-02T03:21:07;101726.75;;;11.12;93.02
21781;BME280;52576;53.614;9.894;2022-09-02T03:22:11;101723.41;;;11.10;92.96
21781;BME280;52576;53.614;9.894;2022-09-02T03:23:13;101726.28;;;11.09;93.37
21781;BME280;52576;53.614;9.894;2022-09-02T03:24:21;101712.81;;;11.02;93.40
21781;BME280;52576;53.614;9.894;2022-09-02T03:25:26;101723.78;;;11.07;93.66
21781;BME280;52576;53.614;9.894;2022-09-02T03:26:41;101725.81;;;11.05;93.19
21781;BME280;52576;53.614;9.894;2022-09-02T03:27:46;101718.81;;;11.04;93.23
21781;BME280;52576;53.614;9.894;2022-09-02T03:28:49;101716.31;;;11.03;93.79
21781;BME280;52576;53.614;9.894;2022-09-02T03:29:53;101722.66;;;11.02;93.70
21781;BME280;52576;53.614;9.894;2022-09-02T03:30:56;101714.81;;;11.00;93.50
21781;BME280;52576;53.614;9.894;2022-09-02T03:32:01;101722.06;;;11.00;93.92
21781;BME280;52576;53.614;9.894;2022-09-02T03:33:04;101715.00;;;10.99;93.87
21781;BME280;52576;53.614;9.894;2022-09-02T03:34:08;101714.22;;;10.98;93.99
21781;BME280;52576;53.614;9.894;2022-09-02T03:35:13;101722.38;;;10.97;93.55
21781;BME280;52576;53.614;9.894;2022-09-02T03:36:19;101723.41;;;10.96;94.07
21781;BME280;52576;53.614;9.894;2022-09-02T03:37:24;101718.25;;;10.94;93.65
21781;BME280;52576;53.614;9.894;2022-09-02T03:38:26;101727.31;;;10.93;94.08
21781;BME280;52576;53.614;9.894;2022-09-02T03:39:29;101714.91;;;10.92;94.08
21781;BME280;52576;53.614;9.894;2022-09-02T03:40:31;101716.94;;;10.90;94.14
21781;BME280;52576;53.614;9.894;2022-09-02T03:41:36;101719.63;;;10.90;93.74
21781;BME280;52576;53.614;9.894;2022-09-02T03:42:39;101720.66;;;10.89;93.81
21781;BME280;52576;53.614;9.894;2022-09-02T03:43:44;101718.16;;;10.88;94.20
21781;BME280;52576;53.614;9.894;2022-09-02T03:44:46;101716.47;;;10.87;94.37
21781;BME280;52576;53.614;9.894;2022-09-02T03:45:49;101721.00;;;10.86;94.15
21781;BME280;52576;53.614;9.894;2022-09-02T03:46:52;101717.69;;;10.84;94.36
21781;BME280;52576;53.614;9.894;2022-09-02T03:47:55;101709.84;;;10.83;94.05
21781;BME280;52576;53.614;9.894;2022-09-02T03:49:01;101715.38;;;10.81;94.03
21781;BME280;52576;53.614;9.894;2022-09-02T03:50:05;101715.56;;;10.80;94.43
21781;BME280;52576;53.614;9.894;2022-09-02T03:51:08;101717.41;;;10.79;94.16
21781;BME280;52576;53.614;9.894;2022-09-02T03:52:11;101713.88;;;10.79;94.67
21781;BME280;52576;53.614;9.894;2022-09-02T03:53:13;101716.56;;;10.79;94.37
21781;BME280;52576;53.614;9.894;2022-09-02T03:54:21;101713.22;;;10.77;94.42
21781;BME280;52576;53.614;9.894;2022-09-02T03:55:25;101706.41;;;10.74;94.45
21781;BME280;52576;53.614;9.894;2022-09-02T03:56:28;101713.41;;;10.75;94.74
21781;BME280;52576;53.614;9.894;2022-09-02T03:57:31;101698.56;;;10.73;94.96
21781;BME280;52576;53.614;9.894;2022-09-02T03:58:36;101717.28;;;10.73;94.68
21781;BME280;52576;53.614;9.894;2022-09-02T03:59:40;101710.25;;;10.72;94.73
21781;BME280;52576;53.614;9.894;2022-09-02T04:00:43;101710.25;;;10.72;94.74
21781;BME280;52576;53.614;9.894;2022-09-02T04:01:46;101703.44;;;10.69;94.91
21781;BME280;52576;53.614;9.894;2022-09-02T04:02:49;101702.13;;;10.65;94.88
21781;BME280;52576;53.614;9.894;2022-09-02T04:03:54;101695.13;;;10.64;94.99
21781;BME280;52576;53.614;9.894;2022-09-02T04:04:57;101708.16;;;10.67;94.94
21781;BME280;52576;53.614;9.894;2022-09-02T04:05:59;101708.16;;;10.67;95.11
21781;BME280;52576;53.614;9.894;2022-09-02T04:07:03;101705.66;;;10.66;95.41
21781;BME280;52576;53.614;9.894;2022-09-02T04:08:05;101709.97;;;10.67;95.38
21781;BME280;52576;53.614;9.894;2022-09-02T04:09:08;101697.53;;;10.59;95.22
21781;BME280;52576;53.614;9.894;2022-09-02T04:10:13;101712.03;;;10.65;95.33
21781;BME280;52576;53.614;9.894;2022-09-02T04:11:19;101698.84;;;10.63;95.73
21781;BME280;52576;53.614;9.894;2022-09-02T04:12:23;101700.66;;;10.63;95.72
21781;BME280;52576;53.614;9.894;2022-09-02T04:13:34;101703.34;;;10.63;95.64
21781;BME280;52576;53.614;9.894;2022-09-02T04:14:38;101705.19;;;10.62;95.84
21781;BME280;52576;53.614;9.894;2022-09-02T04:15:44;101696.50;;;10.60;95.66
21781;BME280;52576;53.614;9.894;2022-09-02T04:16:49;101701.84;;;10.60;95.84
21781;BME280;52576;53.614;9.894;2022-09-02T04:17:53;101698.38;;;10.60;95.71
21781;BME280;52576;53.614;9.894;2022-09-02T04:18:58;101700.19;;;10.59;95.62
21781;BME280;52576;53.614;9.894;2022-09-02T04:20:04;101700.19;;;10.59;96.05
21781;BME280;52576;53.614;9.894;2022-09-02T04:21:07;101704.72;;;10.59;95.81
21781;BME280;52576;53.614;9.894;2022-09-02T04:22:11;101699.53;;;10.57;95.41
21781;BME280;52576;53.614;9.894;2022-09-02T04:23:13;101704.06;;;10.57;95.53
21781;BME280;52576;53.614;9.894;2022-09-02T04:24:19;101697.03;;;10.56;96.00
21781;BME280;52576;53.614;9.894;2022-09-02T04:25:23;101701.56;;;10.55;95.76
21781;BME280;52576;53.614;9.894;2022-09-02T04:26:29;101704.22;;;10.55;95.69
21781;BME280;52576;53.614;9.894;2022-09-02T04:27:33;101700.75;;;10.55;96.08
21781;BME280;52576;53.614;9.894;2022-09-02T04:28:37;101702.59;;;10.54;96.08
21781;BME280;52576;53.614;9.894;2022-09-02T04:29:40;101694.56;;;10.54;96.15
21781;BME280;52576;53.614;9.894;2022-09-02T04:30:44;101703.25;;;10.56;95.86
21781;BME280;52576;53.614;9.894;2022-09-02T04:31:48;101699.91;;;10.54;95.97
21781;BME280;52576;53.614;9.894;2022-09-02T04:32:52;101704.22;;;10.55;96.18
21781;BME280;52576;53.614;9.894;2022-09-02T04:33:54;101697.22;;;10.54;95.96
21781;BME280;52576;53.614;9.894;2022-09-02T04:34:58;101706.91;;;10.55;95.96
21781;BME280;52576;53.614;9.894;2022-09-02T04:36:04;101702.59;;;10.54;95.85
21781;BME280;52576;53.614;9.894;2022-09-02T04:37:08;101701.75;;;10.54;95.88
21781;BME280;52576;53.614;9.894;2022-09-02T04:38:11;101708.78;;;10.55;96.16
21781;BME280;52576;53.614;9.894;2022-09-02T04:39:14;101698.25;;;10.53;96.15
21781;BME280;52576;53.614;9.894;2022-09-02T04:40:17;101701.94;;;10.52;95.90
21781;BME280;52576;53.614;9.894;2022-09-02T04:41:23;101703.59;;;10.53;96.18
21781;BME280;52576;53.614;9.894;2022-09-02T04:42:29;101708.13;;;10.53;96.14
21781;BME280;52576;53.614;9.894;2022-09-02T04:43:32;101705.63;;;10.51;96.20
21781;BME280;52576;53.614;9.894;2022-09-02T04:44:35;101698.13;;;10.47;95.96
21781;BME280;52576;53.614;9.894;2022-09-02T04:45:40;101709.28;;;10.50;96.02
21781;BME280;52576;53.614;9.894;2022-09-02T04:46:43;101702.28;;;10.49;95.97
21781;BME280;52576;53.614;9.894;2022-09-02T04:47:50;101708.47;;;10.50;96.03
21781;BME280;52576;53.614;9.894;2022-09-02T04:48:54;101713.00;;;10.49;96.37
21781;BME280;52576;53.614;9.894;2022-09-02T04:49:57;101710.13;;;10.51;96.58
21781;BME280;52576;53.614;9.894;2022-09-02T04:51:03;101702.94;;;10.51;96.22
21781;BME280;52576;53.614;9.894;2022-09-02T04:52:07;101700.28;;;10.51;96.45
21781;BME280;52576;53.614;9.894;2022-09-02T04:53:12;101703.59;;;10.53;96.47
21781;BME280;52576;53.614;9.894;2022-09-02T04:54:16;101703.59;;;10.53;96.62
21781;BME280;52576;53.614;9.894;2022-09-02T04:55:22;101708.97;;;10.53;96.60
21781;BME280;52576;53.614;9.894;2022-09-02T04:56:27;101702.59;;;10.54;96.66
21781;BME280;52576;53.614;9.894;2022-09-02T04:57:33;101706.09;;;10.55;96.72
21781;BME280;52576;53.614;9.894;2022-09-02T04:58:38;101707.94;;;10.54;96.29
21781;BME280;52576;53.614;9.894;2022-09-02T04:59:40;101701.56;;;10.55;96.59
21781;BME280;52576;53.614;9.894;2022-09-02T05:00:46;101702.41;;;10.56;96.77
21781;BME280;52576;53.614;9.894;2022-09-02T05:01:50;101708.59;;;10.56;96.44
21781;BME280;52576;53.614;9.894;2022-09-02T05:02:59;101709.41;;;10.57;96.27
21781;BME280;52576;53.614;9.894;2022-09-02T05:04:04;101701.22;;;10.58;96.18
21781;BME280;52576;53.614;9.894;2022-09-02T05:05:14;101707.38;;;10.59;96.77
21781;BME280;52576;53.614;9.894;2022-09-02T05:06:19;101710.72;;;10.61;96.64
21781;BME280;52576;53.614;9.894;2022-09-02T05:07:23;101710.72;;;10.61;96.16
21781;BME280;52576;53.614;9.894;2022-09-02T05:08:26;101712.53;;;10.60;96.17
21781;BME280;52576;53.614;9.894;2022-09-02T05:09:30;101706.19;;;10.61;96.39
21781;BME280;52576;53.614;9.894;2022-09-02T05:10:38;101708.69;;;10.63;96.30
21781;BME280;52576;53.614;9.894;2022-09-02T05:11:41;101712.22;;;10.63;96.63
21781;BME280;52576;53.614;9.894;2022-09-02T05:12:43;101712.84;;;10.65;96.53
21781;BME280;52576;53.614;9.894;2022-09-02T05:13:48;101717.00;;;10.68;96.45
21781;BME280;52576;53.614;9.894;2022-09-02T05:14:54;101709.81;;;10.68;96.46
21781;BME280;52576;53.614;9.894;2022-09-02T05:16:05;101717.47;;;10.71;96.33
21781;BME280;52576;53.614;9.894;2022-09-02T05:17:08;101716.47;;;10.72;96.43
21781;BME280;52576;53.614;9.894;2022-09-02T05:18:14;101710.91;;;10.74;96.65
21781;BME280;52576;53.614;9.894;2022-09-02T05:19:19;101714.25;;;10.76;96.07
21781;BME280;52576;53.614;9.894;2022-09-02T05:20:24;101722.09;;;10.77;96.38
21781;BME280;52576;53.614;9.894;2022-09-02T05:21:30;101715.75;;;10.78;95.93
21781;BME280;52576;53.614;9.894;2022-09-02T05:22:36;101716.38;;;10.80;95.99
21781;BME280;52576;53.614;9.894;2022-09-02T05:23:41;101716.38;;;10.80;96.42
21781;BME280;52576;53.614;9.894;2022-09-02T05:24:44;101717.88;;;10.83;95.87
21781;BME280;52576;53.614;9.894;2022-09-02T05:25:48;101713.16;;;10.85;96.20
21781;BME280;52576;53.614;9.894;2022-09-02T05:26:51;101712.97;;;10.86;96.39
21781;BME280;52576;53.614;9.894;2022-09-02T05:27:54;101719.81;;;10.89;96.40
21781;BME280;52576;53.614;9.894;2022-09-02T05:28:57;101712.44;;;10.91;96.07
21781;BME280;52576;53.614;9.894;2022-09-02T05:30:02;101719.28;;;10.93;96.36
21781;BME280;52576;53.614;9.894;2022-09-02T05:31:11;101707.72;;;10.93;96.23
21781;BME280;52576;53.614;9.894;2022-09-02T05:32:16;101719.56;;;10.98;96.28
21781;BME280;52576;53.614;9.894;2022-09-02T05:33:21;101719.19;;;11.01;96.13
21781;BME280;52576;53.614;9.894;2022-09-02T05:34:24;101714.50;;;11.03;96.10
21781;BME280;52576;53.614;9.894;2022-09-02T05:35:30;101722.16;;;11.06;95.91
21781;BME280;52576;53.614;9.894;2022-09-02T05:36:35;101716.41;;;11.09;96.09